sensor_id;sensor_type;location;lat;lon;timestamp;P1;durP1;ratioP1;P2;durP2;ratioP2
58752;SDS011;44525;46.052;13.610;2023-09-07T00:00:42;9.05;;;6.50;;
58752;SDS011;44525;46.052;13.610;2023-09-07T00:03:08;9.85;;;6.40;;
58752;SDS011;44525;46.052;13.610;2023-09-07T00:05:33;9.88;;;6.22;;
58752;SDS011;44525;46.052;13.610;2023-09-07T00:07:59;8.82;;;6.47;;
58752;SDS011;44525;46.052;13.610;2023-09-07T00:10:25;10.15;;;6.30;;
58752;SDS011;44525;46.052;13.610;2023-09-07T00:12:51;10.70;;;6.40;;
58752;SDS011;44525;46.052;13.610;2023-09-07T00:15:17;8.65;;;6.38;;
58752;SDS011;44525;46.052;13.610;2023-09-07T00:17:44;8.23;;;6.22;;
58752;SDS011;44525;46.052;13.610;2023-09-07T00:20:10;12.13;;;6.40;;
58752;SDS011;44525;46.052;13.610;2023-09-07T00:22:36;10.85;;;6.43;;
58752;SDS011;44525;46.052;13.610;2023-09-07T00:25:02;10.40;;;6.72;;
58752;SDS011;44525;46.052;13.610;2023-09-07T00:27:29;10.30;;;7.22;;
58752;SDS011;44525;46.052;13.610;2023-09-07T00:29:55;12.38;;;6.72;;
58752;SDS011;44525;46.052;13.610;2023-09-07T00:32:20;8.45;;;6.10;;
58752;SDS011;44525;46.052;13.610;2023-09-07T00:34:46;9.98;;;6.18;;
58752;SDS011;44525;46.052;13.610;2023-09-07T00:37:11;8.98;;;6.10;;
58752;SDS011;44525;46.052;13.610;2023-09-07T00:39:37;8.55;;;6.30;;
58752;SDS011;44525;46.052;13.610;2023-09-07T00:42:03;9.07;;;6.32;;
58752;SDS011;44525;46.052;13.610;2023-09-07T00:44:28;12.00;;;6.63;;
58752;SDS011;44525;46.052;13.610;2023-09-07T00:46:54;10.20;;;6.70;;
58752;SDS011;44525;46.052;13.610;2023-09-07T00:49:21;9.98;;;6.90;;
58752;SDS011;44525;46.052;13.610;2023-09-07T00:51:47;9.52;;;6.60;;
58752;SDS011;44525;46.052;13.610;2023-09-07T00:54:13;10.10;;;6.75;;
58752;SDS011;44525;46.052;13.610;2023-09-07T00:56:38;7.50;;;5.65;;
58752;SDS011;44525;46.052;13.610;2023-09-07T00:59:04;9.07;;;6.20;;
58752;SDS011;44525;46.052;13.610;2023-09-07T01:01:32;7.65;;;5.90;;
58752;SDS011;44525;46.052;13.610;2023-09-07T01:03:58;9.38;;;6.60;;
58752;SDS011;44525;46.052;13.610;2023-09-07T01:06:30;10.82;;;5.95;;
58752;SDS011;44525;46.052;13.610;2023-09-07T01:09:02;9.05;;;6.25;;
58752;SDS011;44525;46.052;13.610;2023-09-07T01:11:35;9.55;;;6.43;;
58752;SDS011;44525;46.052;13.610;2023-09-07T01:14:02;11.23;;;6.25;;
58752;SDS011;44525;46.052;13.610;2023-09-07T01:16:29;9.15;;;6.30;;
58752;SDS011;44525;46.052;13.610;2023-09-07T01:18:55;14.77;;;6.63;;
58752;SDS011;44525;46.052;13.610;2023-09-07T01:21:22;13.93;;;6.13;;
58752;SDS011;44525;46.052;13.610;2023-09-07T01:23:47;9.50;;;6.57;;
58752;SDS011;44525;46.052;13.610;2023-09-07T01:26:14;7.80;;;5.82;;
58752;SDS011;44525;46.052;13.610;2023-09-07T01:28:40;11.25;;;6.13;;
58752;SDS011;44525;46.052;13.610;2023-09-07T01:31:06;8.43;;;6.43;;
58752;SDS011;44525;46.052;13.610;2023-09-07T01:33:32;11.02;;;7.15;;
58752;SDS011;44525;46.052;13.610;2023-09-07T01:35:57;9.20;;;5.85;;
58752;SDS011;44525;46.052;13.610;2023-09-07T01:38:23;11.02;;;6.80;;
58752;SDS011;44525;46.052;13.610;2023-09-07T01:40:48;10.38;;;6.35;;
58752;SDS011;44525;46.052;13.610;2023-09-07T01:43:14;9.70;;;6.22;;
58752;SDS011;44525;46.052;13.610;2023-09-07T01:45:39;8.43;;;6.72;;
58752;SDS011;44525;46.052;13.610;2023-09-07T01:48:08;8.98;;;6.32;;
58752;SDS011;44525;46.052;13.610;2023-09-07T01:50:37;10.25;;;6.20;;
58752;SDS011;44525;46.052;13.610;2023-09-07T01:53:03;10.65;;;6.53;;
58752;SDS011;44525;46.052;13.610;2023-09-07T01:55:29;9.30;;;5.97;;
58752;SDS011;44525;46.052;13.610;2023-09-07T01:57:58;8.25;;;6.25;;
58752;SDS011;44525;46.052;13.610;2023-09-07T02:00:23;10.32;;;6.40;;
58752;SDS011;44525;46.052;13.610;2023-09-07T02:02:49;9.30;;;5.85;;
58752;SDS011;44525;46.052;13.610;2023-09-07T02:05:14;8.65;;;6.32;;
58752;SDS011;44525;46.052;13.610;2023-09-07T02:07:41;8.80;;;6.07;;
58752;SDS011;44525;46.052;13.610;2023-09-07T02:10:07;8.85;;;6.07;;
58752;SDS011;44525;46.052;13.610;2023-09-07T02:12:33;10.23;;;6.28;;
58752;SDS011;44525;46.052;13.610;2023-09-07T02:15:00;12.82;;;6.55;;
58752;SDS011;44525;46.052;13.610;2023-09-07T02:17:27;11.90;;;7.00;;
58752;SDS011;44525;46.052;13.610;2023-09-07T02:19:52;8.73;;;6.20;;
58752;SDS011;44525;46.052;13.610;2023-09-07T02:22:17;9.10;;;6.85;;
58752;SDS011;44525;46.052;13.610;2023-09-07T02:24:43;15.27;;;6.68;;
58752;SDS011;44525;46.052;13.610;2023-09-07T02:27:08;11.65;;;6.35;;
58752;SDS011;44525;46.052;13.610;2023-09-07T02:29:34;10.13;;;6.63;;
58752;SDS011;44525;46.052;13.610;2023-09-07T02:31:59;8.68;;;6.10;;
58752;SDS011;44525;46.052;13.610;2023-09-07T02:34:25;10.60;;;6.65;;
58752;SDS011;44525;46.052;13.610;2023-09-07T02:36:50;9.30;;;6.18;;
58752;SDS011;44525;46.052;13.610;2023-09-07T02:39:15;9.55;;;6.18;;
58752;SDS011;44525;46.052;13.610;2023-09-07T02:41:42;10.07;;;6.13;;
58752;SDS011;44525;46.052;13.610;2023-09-07T02:44:07;9.45;;;6.05;;
58752;SDS011;44525;46.052;13.610;2023-09-07T02:46:33;9.27;;;5.88;;
58752;SDS011;44525;46.052;13.610;2023-09-07T02:48:58;12.05;;;6.05;;
58752;SDS011;44525;46.052;13.610;2023-09-07T02:51:24;10.02;;;6.10;;
58752;SDS011;44525;46.052;13.610;2023-09-07T02:53:50;9.07;;;6.30;;
58752;SDS011;44525;46.052;13.610;2023-09-07T02:56:16;9.23;;;6.10;;
58752;SDS011;44525;46.052;13.610;2023-09-07T02:58:41;9.23;;;6.10;;
58752;SDS011;44525;46.052;13.610;2023-09-07T03:01:07;8.63;;;6.07;;
58752;SDS011;44525;46.052;13.610;2023-09-07T03:03:35;9.93;;;6.88;;
58752;SDS011;44525;46.052;13.610;2023-09-07T03:06:08;10.85;;;6.57;;
58752;SDS011;44525;46.052;13.610;2023-09-07T03:08:38;11.90;;;6.25;;
58752;SDS011;44525;46.052;13.610;2023-09-07T03:11:04;8.57;;;5.90;;
58752;SDS011;44525;46.052;13.610;2023-09-07T03:13:30;12.80;;;6.75;;
58752;SDS011;44525;46.052;13.610;2023-09-07T03:15:56;8.40;;;6.13;;
58752;SDS011;44525;46.052;13.610;2023-09-07T03:18:22;10.05;;;6.35;;
58752;SDS011;44525;46.052;13.610;2023-09-07T03:20:47;8.85;;;5.93;;
58752;SDS011;44525;46.052;13.610;2023-09-07T03:23:14;8.95;;;6.50;;
58752;SDS011;44525;46.052;13.610;2023-09-07T03:25:39;10.48;;;6.03;;
58752;SDS011;44525;46.052;13.610;2023-09-07T03:28:05;9.18;;;6.30;;
58752;SDS011;44525;46.052;13.610;2023-09-07T03:30:31;8.48;;;5.85;;
58752;SDS011;44525;46.052;13.610;2023-09-07T03:32:56;10.05;;;6.28;;
58752;SDS011;44525;46.052;13.610;2023-09-07T03:35:22;8.80;;;6.07;;
58752;SDS011;44525;46.052;13.610;2023-09-07T03:37:47;8.73;;;5.80;;
58752;SDS011;44525;46.052;13.610;2023-09-07T03:40:13;9.85;;;6.32;;
58752;SDS011;44525;46.052;13.610;2023-09-07T03:42:38;10.23;;;5.53;;
58752;SDS011;44525;46.052;13.610;2023-09-07T03:45:04;10.40;;;5.97;;
58752;SDS011;44525;46.052;13.610;2023-09-07T03:47:30;9.15;;;5.93;;
58752;SDS011;44525;46.052;13.610;2023-09-07T03:49:56;10.38;;;6.38;;
58752;SDS011;44525;46.052;13.610;2023-09-07T03:52:22;7.95;;;5.35;;
58752;SDS011;44525;46.052;13.610;2023-09-07T03:54:50;10.10;;;6.10;;
58752;SDS011;44525;46.052;13.610;2023-09-07T03:57:17;7.88;;;5.88;;
58752;SDS011;44525;46.052;13.610;2023-09-07T03:59:44;7.93;;;5.63;;
58752;SDS011;44525;46.052;13.610;2023-09-07T04:02:09;8.10;;;6.00;;
58752;SDS011;44525;46.052;13.610;2023-09-07T04:04:34;10.27;;;6.10;;
58752;SDS011;44525;46.052;13.610;2023-09-07T04:07:00;7.82;;;5.65;;
58752;SDS011;44525;46.052;13.610;2023-09-07T04:09:25;8.00;;;5.80;;
58752;SDS011;44525;46.052;13.610;2023-09-07T04:11:50;8.75;;;5.93;;
58752;SDS011;44525;46.052;13.610;2023-09-07T04:14:16;8.98;;;5.93;;
58752;SDS011;44525;46.052;13.610;2023-09-07T04:16:41;8.75;;;5.35;;
58752;SDS011;44525;46.052;13.610;2023-09-07T04:19:07;8.75;;;6.32;;
58752;SDS011;44525;46.052;13.610;2023-09-07T04:21:33;9.13;;;5.70;;
58752;SDS011;44525;46.052;13.610;2023-09-07T04:23:58;8.50;;;5.70;;
58752;SDS011;44525;46.052;13.610;2023-09-07T04:26:23;8.90;;;5.60;;
58752;SDS011;44525;46.052;13.610;2023-09-07T04:28:49;8.60;;;5.85;;
58752;SDS011;44525;46.052;13.610;2023-09-07T04:31:14;8.80;;;5.75;;
58752;SDS011;44525;46.052;13.610;2023-09-07T04:33:39;8.90;;;5.93;;
58752;SDS011;44525;46.052;13.610;2023-09-07T04:38:37;9.10;;;5.90;;
58752;SDS011;44525;46.052;13.610;2023-09-07T04:41:10;11.50;;;5.78;;
58752;SDS011;44525;46.052;13.610;2023-09-07T04:43:39;8.82;;;6.07;;
58752;SDS011;44525;46.052;13.610;2023-09-07T04:46:07;8.75;;;5.85;;
58752;SDS011;44525;46.052;13.610;2023-09-07T04:48:33;8.77;;;6.43;;
58752;SDS011;44525;46.052;13.610;2023-09-07T04:50:59;9.18;;;6.38;;
58752;SDS011;44525;46.052;13.610;2023-09-07T04:53:27;9.95;;;6.00;;
58752;SDS011;44525;46.052;13.610;2023-09-07T04:55:53;8.80;;;5.90;;
58752;SDS011;44525;46.052;13.610;2023-09-07T04:58:19;11.93;;;6.40;;
58752;SDS011;44525;46.052;13.610;2023-09-07T05:00:44;10.07;;;6.00;;
58752;SDS011;44525;46.052;13.610;2023-09-07T05:03:09;9.02;;;6.18;;
58752;SDS011;44525;46.052;13.610;2023-09-07T05:05:35;12.57;;;6.18;;
58752;SDS011;44525;46.052;13.610;2023-09-07T05:08:00;9.55;;;6.15;;
58752;SDS011;44525;46.052;13.610;2023-09-07T05:10:26;9.52;;;6.32;;
58752;SDS011;44525;46.052;13.610;2023-09-07T05:12:52;8.13;;;6.10;;
58752;SDS011;44525;46.052;13.610;2023-09-07T05:15:17;10.05;;;6.10;;
58752;SDS011;44525;46.052;13.610;2023-09-07T05:17:42;9.40;;;6.85;;
58752;SDS011;44525;46.052;13.610;2023-09-07T05:20:08;9.73;;;6.35;;
58752;SDS011;44525;46.052;13.610;2023-09-07T05:22:34;9.48;;;6.53;;
58752;SDS011;44525;46.052;13.610;2023-09-07T05:25:02;13.10;;;6.68;;
58752;SDS011;44525;46.052;13.610;2023-09-07T05:27:28;11.25;;;6.43;;
58752;SDS011;44525;46.052;13.610;2023-09-07T05:29:53;11.32;;;6.20;;
58752;SDS011;44525;46.052;13.610;2023-09-07T05:32:19;8.38;;;6.57;;
58752;SDS011;44525;46.052;13.610;2023-09-07T05:34:44;9.55;;;6.13;;
58752;SDS011;44525;46.052;13.610;2023-09-07T05:37:09;7.68;;;5.82;;
58752;SDS011;44525;46.052;13.610;2023-09-07T05:39:35;10.48;;;6.35;;
58752;SDS011;44525;46.052;13.610;2023-09-07T05:42:00;10.85;;;6.20;;
58752;SDS011;44525;46.052;13.610;2023-09-07T05:44:25;11.02;;;6.05;;
58752;SDS011;44525;46.052;13.610;2023-09-07T05:46:51;7.97;;;5.60;;
58752;SDS011;44525;46.052;13.610;2023-09-07T05:49:16;7.25;;;5.57;;
58752;SDS011;44525;46.052;13.610;2023-09-07T05:51:42;8.65;;;5.32;;
58752;SDS011;44525;46.052;13.610;2023-09-07T05:54:07;7.45;;;5.38;;
58752;SDS011;44525;46.052;13.610;2023-09-07T05:56:32;7.82;;;5.65;;
58752;SDS011;44525;46.052;13.610;2023-09-07T05:58:58;10.63;;;5.55;;
58752;SDS011;44525;46.052;13.610;2023-09-07T06:01:24;11.48;;;6.00;;
58752;SDS011;44525;46.052;13.610;2023-09-07T06:03:49;7.53;;;5.75;;
58752;SDS011;44525;46.052;13.610;2023-09-07T06:06:15;7.60;;;5.32;;
58752;SDS011;44525;46.052;13.610;2023-09-07T06:08:40;7.50;;;5.40;;
58752;SDS011;44525;46.052;13.610;2023-09-07T06:11:05;9.43;;;5.60;;
58752;SDS011;44525;46.052;13.610;2023-09-07T06:13:31;9.70;;;5.63;;
58752;SDS011;44525;46.052;13.610;2023-09-07T06:15:56;8.48;;;4.95;;
58752;SDS011;44525;46.052;13.610;2023-09-07T06:18:22;10.27;;;5.82;;
58752;SDS011;44525;46.052;13.610;2023-09-07T06:20:47;8.02;;;5.45;;
58752;SDS011;44525;46.052;13.610;2023-09-07T06:23:13;8.27;;;5.28;;
58752;SDS011;44525;46.052;13.610;2023-09-07T06:25:38;8.18;;;5.25;;
58752;SDS011;44525;46.052;13.610;2023-09-07T06:28:04;8.98;;;5.35;;
58752;SDS011;44525;46.052;13.610;2023-09-07T06:30:29;9.20;;;5.22;;
58752;SDS011;44525;46.052;13.610;2023-09-07T06:32:55;11.60;;;5.30;;
58752;SDS011;44525;46.052;13.610;2023-09-07T06:35:21;8.85;;;5.53;;
58752;SDS011;44525;46.052;13.610;2023-09-07T06:37:47;8.98;;;5.20;;
58752;SDS011;44525;46.052;13.610;2023-09-07T06:40:12;8.52;;;5.13;;
58752;SDS011;44525;46.052;13.610;2023-09-07T06:42:38;9.32;;;4.85;;
58752;SDS011;44525;46.052;13.610;2023-09-07T06:45:04;6.78;;;4.82;;
58752;SDS011;44525;46.052;13.610;2023-09-07T06:47:30;9.50;;;5.00;;
58752;SDS011;44525;46.052;13.610;2023-09-07T06:49:56;7.07;;;5.03;;
58752;SDS011;44525;46.052;13.610;2023-09-07T06:52:22;7.20;;;4.90;;
58752;SDS011;44525;46.052;13.610;2023-09-07T06:54:50;7.15;;;4.70;;
58752;SDS011;44525;46.052;13.610;2023-09-07T06:57:16;7.15;;;4.90;;
58752;SDS011;44525;46.052;13.610;2023-09-07T06:59:42;8.57;;;5.13;;
58752;SDS011;44525;46.052;13.610;2023-09-07T07:02:08;8.13;;;4.93;;
58752;SDS011;44525;46.052;13.610;2023-09-07T07:04:33;7.20;;;5.00;;
58752;SDS011;44525;46.052;13.610;2023-09-07T07:07:00;11.32;;;4.88;;
58752;SDS011;44525;46.052;13.610;2023-09-07T07:09:32;8.60;;;5.00;;
58752;SDS011;44525;46.052;13.610;2023-09-07T07:11:59;9.68;;;4.57;;
58752;SDS011;44525;46.052;13.610;2023-09-07T07:14:28;6.22;;;4.60;;
58752;SDS011;44525;46.052;13.610;2023-09-07T07:16:53;6.95;;;4.20;;
58752;SDS011;44525;46.052;13.610;2023-09-07T07:19:19;8.05;;;4.30;;
58752;SDS011;44525;46.052;13.610;2023-09-07T07:21:44;6.20;;;4.45;;
58752;SDS011;44525;46.052;13.610;2023-09-07T07:24:10;12.23;;;4.43;;
58752;SDS011;44525;46.052;13.610;2023-09-07T07:26:35;7.50;;;4.50;;
58752;SDS011;44525;46.052;13.610;2023-09-07T07:29:01;7.93;;;4.20;;
58752;SDS011;44525;46.052;13.610;2023-09-07T07:31:28;6.18;;;4.55;;
58752;SDS011;44525;46.052;13.610;2023-09-07T07:33:54;8.93;;;4.55;;
58752;SDS011;44525;46.052;13.610;2023-09-07T07:36:20;8.82;;;4.50;;
58752;SDS011;44525;46.052;13.610;2023-09-07T07:38:46;7.18;;;4.40;;
58752;SDS011;44525;46.052;13.610;2023-09-07T07:41:11;7.10;;;4.13;;
58752;SDS011;44525;46.052;13.610;2023-09-07T07:43:37;7.97;;;4.80;;
58752;SDS011;44525;46.052;13.610;2023-09-07T07:46:02;6.43;;;4.35;;
58752;SDS011;44525;46.052;13.610;2023-09-07T07:48:27;8.13;;;4.60;;
58752;SDS011;44525;46.052;13.610;2023-09-07T07:50:54;7.40;;;4.78;;
58752;SDS011;44525;46.052;13.610;2023-09-07T07:53:20;12.80;;;4.70;;
58752;SDS011;44525;46.052;13.610;2023-09-07T07:55:45;8.07;;;4.43;;
58752;SDS011;44525;46.052;13.610;2023-09-07T07:58:11;7.40;;;4.40;;
58752;SDS011;44525;46.052;13.610;2023-09-07T08:00:37;7.55;;;4.65;;
58752;SDS011;44525;46.052;13.610;2023-09-07T08:03:03;7.70;;;4.50;;
58752;SDS011;44525;46.052;13.610;2023-09-07T08:05:33;9.55;;;4.40;;
58752;SDS011;44525;46.052;13.610;2023-09-07T08:07:59;7.63;;;4.90;;
58752;SDS011;44525;46.052;13.610;2023-09-07T08:10:25;10.63;;;4.90;;
58752;SDS011;44525;46.052;13.610;2023-09-07T08:12:54;7.90;;;4.43;;
58752;SDS011;44525;46.052;13.610;2023-09-07T08:15:20;13.25;;;4.63;;
58752;SDS011;44525;46.052;13.610;2023-09-07T08:17:47;7.00;;;3.95;;
58752;SDS011;44525;46.052;13.610;2023-09-07T08:20:13;6.50;;;4.13;;
58752;SDS011;44525;46.052;13.610;2023-09-07T08:22:39;6.47;;;4.47;;
58752;SDS011;44525;46.052;13.610;2023-09-07T08:25:07;6.93;;;4.20;;
58752;SDS011;44525;46.052;13.610;2023-09-07T08:27:33;6.13;;;4.10;;
58752;SDS011;44525;46.052;13.610;2023-09-07T08:29:59;5.72;;;3.47;;
58752;SDS011;44525;46.052;13.610;2023-09-07T08:32:24;5.65;;;3.85;;
58752;SDS011;44525;46.052;13.610;2023-09-07T08:34:49;8.45;;;4.13;;
58752;SDS011;44525;46.052;13.610;2023-09-07T08:37:16;6.43;;;4.38;;
58752;SDS011;44525;46.052;13.610;2023-09-07T08:39:41;6.57;;;3.92;;
58752;SDS011;44525;46.052;13.610;2023-09-07T08:42:07;8.25;;;4.05;;
58752;SDS011;44525;46.052;13.610;2023-09-07T08:44:33;7.43;;;4.38;;
58752;SDS011;44525;46.052;13.610;2023-09-07T08:47:02;5.82;;;4.03;;
58752;SDS011;44525;46.052;13.610;2023-09-07T08:49:29;7.57;;;4.07;;
58752;SDS011;44525;46.052;13.610;2023-09-07T08:52:00;5.32;;;3.63;;
58752;SDS011;44525;46.052;13.610;2023-09-07T08:54:27;6.90;;;4.18;;
58752;SDS011;44525;46.052;13.610;2023-09-07T08:56:55;7.50;;;4.05;;
58752;SDS011;44525;46.052;13.610;2023-09-07T08:59:22;5.95;;;3.88;;
58752;SDS011;44525;46.052;13.610;2023-09-07T09:01:47;6.97;;;4.15;;
58752;SDS011;44525;46.052;13.610;2023-09-07T09:04:13;8.18;;;4.05;;
58752;SDS011;44525;46.052;13.610;2023-09-07T09:06:38;6.85;;;3.97;;
58752;SDS011;44525;46.052;13.610;2023-09-07T09:09:04;6.70;;;4.32;;
58752;SDS011;44525;46.052;13.610;2023-09-07T09:11:32;7.70;;;4.05;;
58752;SDS011;44525;46.052;13.610;2023-09-07T09:13:57;7.47;;;4.47;;
58752;SDS011;44525;46.052;13.610;2023-09-07T09:16:23;6.35;;;3.80;;
58752;SDS011;44525;46.052;13.610;2023-09-07T09:18:52;7.07;;;4.20;;
58752;SDS011;44525;46.052;13.610;2023-09-07T09:21:24;7.57;;;4.33;;
58752;SDS011;44525;46.052;13.610;2023-09-07T09:23:52;7.70;;;3.95;;
58752;SDS011;44525;46.052;13.610;2023-09-07T09:26:18;6.10;;;4.22;;
58752;SDS011;44525;46.052;13.610;2023-09-07T09:28:44;6.32;;;3.80;;
58752;SDS011;44525;46.052;13.610;2023-09-07T09:31:10;6.43;;;4.10;;
58752;SDS011;44525;46.052;13.610;2023-09-07T09:33:42;7.88;;;4.30;;
58752;SDS011;44525;46.052;13.610;2023-09-07T09:36:12;5.38;;;4.05;;
58752;SDS011;44525;46.052;13.610;2023-09-07T09:38:38;5.72;;;4.07;;
58752;SDS011;44525;46.052;13.610;2023-09-07T09:41:03;6.47;;;3.88;;
58752;SDS011;44525;46.052;13.610;2023-09-07T09:43:30;6.05;;;4.15;;
58752;SDS011;44525;46.052;13.610;2023-09-07T09:45:55;7.22;;;4.13;;
58752;SDS011;44525;46.052;13.610;2023-09-07T09:48:22;6.15;;;4.25;;
58752;SDS011;44525;46.052;13.610;2023-09-07T09:50:48;5.65;;;3.95;;
58752;SDS011;44525;46.052;13.610;2023-09-07T09:53:18;7.85;;;4.25;;
58752;SDS011;44525;46.052;13.610;2023-09-07T09:55:46;9.90;;;4.30;;
58752;SDS011;44525;46.052;13.610;2023-09-07T09:58:13;6.28;;;4.07;;
58752;SDS011;44525;46.052;13.610;2023-09-07T10:00:49;5.68;;;4.00;;
58752;SDS011;44525;46.052;13.610;2023-09-07T10:03:19;6.78;;;4.00;;
58752;SDS011;44525;46.052;13.610;2023-09-07T10:05:53;7.07;;;3.97;;
58752;SDS011;44525;46.052;13.610;2023-09-07T10:08:19;5.70;;;4.07;;
58752;SDS011;44525;46.052;13.610;2023-09-07T10:10:48;7.70;;;4.47;;
58752;SDS011;44525;46.052;13.610;2023-09-07T10:13:28;6.00;;;4.00;;
58752;SDS011;44525;46.052;13.610;2023-09-07T10:16:04;5.65;;;3.90;;
58752;SDS011;44525;46.052;13.610;2023-09-07T10:18:37;6.82;;;3.92;;
58752;SDS011;44525;46.052;13.610;2023-09-07T10:21:03;6.93;;;3.92;;
58752;SDS011;44525;46.052;13.610;2023-09-07T10:23:37;5.30;;;3.90;;
58752;SDS011;44525;46.052;13.610;2023-09-07T10:26:14;6.75;;;3.95;;
58752;SDS011;44525;46.052;13.610;2023-09-07T10:28:45;7.97;;;3.78;;
58752;SDS011;44525;46.052;13.610;2023-09-07T10:31:17;7.20;;;3.95;;
58752;SDS011;44525;46.052;13.610;2023-09-07T10:33:44;5.68;;;3.70;;
58752;SDS011;44525;46.052;13.610;2023-09-07T10:38:52;6.22;;;4.00;;
58752;SDS011;44525;46.052;13.610;2023-09-07T10:41:19;5.85;;;4.10;;
58752;SDS011;44525;46.052;13.610;2023-09-07T10:43:48;7.13;;;4.00;;
58752;SDS011;44525;46.052;13.610;2023-09-07T10:46:23;5.88;;;3.95;;
58752;SDS011;44525;46.052;13.610;2023-09-07T10:48:49;7.22;;;4.25;;
58752;SDS011;44525;46.052;13.610;2023-09-07T10:51:16;5.97;;;4.30;;
58752;SDS011;44525;46.052;13.610;2023-09-07T10:53:45;6.28;;;4.10;;
58752;SDS011;44525;46.052;13.610;2023-09-07T10:56:11;5.57;;;3.90;;
58752;SDS011;44525;46.052;13.610;2023-09-07T10:58:36;6.35;;;3.75;;
58752;SDS011;44525;46.052;13.610;2023-09-07T11:01:04;5.57;;;3.97;;
58752;SDS011;44525;46.052;13.610;2023-09-07T11:03:30;6.75;;;4.03;;
58752;SDS011;44525;46.052;13.610;2023-09-07T11:05:59;6.70;;;4.25;;
58752;SDS011;44525;46.052;13.610;2023-09-07T11:08:29;6.47;;;4.50;;
58752;SDS011;44525;46.052;13.610;2023-09-07T11:10:55;5.80;;;3.78;;
58752;SDS011;44525;46.052;13.610;2023-09-07T11:13:21;7.47;;;4.00;;
58752;SDS011;44525;46.052;13.610;2023-09-07T11:15:52;5.55;;;3.78;;
58752;SDS011;44525;46.052;13.610;2023-09-07T11:18:22;5.20;;;3.78;;
58752;SDS011;44525;46.052;13.610;2023-09-07T11:20:49;6.93;;;4.55;;
58752;SDS011;44525;46.052;13.610;2023-09-07T11:23:19;6.80;;;4.22;;
58752;SDS011;44525;46.052;13.610;2023-09-07T11:25:46;7.93;;;3.90;;
58752;SDS011;44525;46.052;13.610;2023-09-07T11:28:14;7.35;;;4.13;;
58752;SDS011;44525;46.052;13.610;2023-09-07T11:30:53;5.25;;;3.60;;
58752;SDS011;44525;46.052;13.610;2023-09-07T11:33:20;8.05;;;3.80;;
58752;SDS011;44525;46.052;13.610;2023-09-07T11:35:47;5.45;;;4.00;;
58752;SDS011;44525;46.052;13.610;2023-09-07T11:38:15;6.25;;;3.83;;
58752;SDS011;44525;46.052;13.610;2023-09-07T11:40:41;6.50;;;4.00;;
58752;SDS011;44525;46.052;13.610;2023-09-07T11:43:14;6.03;;;4.18;;
58752;SDS011;44525;46.052;13.610;2023-09-07T11:45:41;7.70;;;4.18;;
58752;SDS011;44525;46.052;13.610;2023-09-07T11:48:08;5.90;;;4.20;;
58752;SDS011;44525;46.052;13.610;2023-09-07T11:50:34;6.95;;;4.50;;
58752;SDS011;44525;46.052;13.610;2023-09-07T11:53:00;6.95;;;4.03;;
58752;SDS011;44525;46.052;13.610;2023-09-07T11:55:25;7.32;;;4.57;;
58752;SDS011;44525;46.052;13.610;2023-09-07T11:57:51;6.93;;;4.43;;
58752;SDS011;44525;46.052;13.610;2023-09-07T12:00:17;6.95;;;4.35;;
58752;SDS011;44525;46.052;13.610;2023-09-07T12:02:42;7.22;;;4.05;;
58752;SDS011;44525;46.052;13.610;2023-09-07T12:05:08;6.07;;;4.15;;
58752;SDS011;44525;46.052;13.610;2023-09-07T12:07:34;6.55;;;4.00;;
58752;SDS011;44525;46.052;13.610;2023-09-07T12:10:03;8.55;;;4.38;;
58752;SDS011;44525;46.052;13.610;2023-09-07T12:12:29;7.00;;;4.10;;
58752;SDS011;44525;46.052;13.610;2023-09-07T12:14:54;12.75;;;4.10;;
58752;SDS011;44525;46.052;13.610;2023-09-07T12:17:21;5.60;;;4.07;;
58752;SDS011;44525;46.052;13.610;2023-09-07T12:19:47;7.10;;;4.60;;
58752;SDS011;44525;46.052;13.610;2023-09-07T12:22:12;7.32;;;4.20;;
58752;SDS011;44525;46.052;13.610;2023-09-07T12:24:38;7.45;;;4.00;;
58752;SDS011;44525;46.052;13.610;2023-09-07T12:27:03;7.30;;;4.45;;
58752;SDS011;44525;46.052;13.610;2023-09-07T12:29:29;7.55;;;4.18;;
58752;SDS011;44525;46.052;13.610;2023-09-07T12:31:54;6.88;;;4.25;;
58752;SDS011;44525;46.052;13.610;2023-09-07T12:34:20;5.80;;;4.10;;
58752;SDS011;44525;46.052;13.610;2023-09-07T12:36:45;5.90;;;4.63;;
58752;SDS011;44525;46.052;13.610;2023-09-07T12:39:11;7.40;;;4.38;;
58752;SDS011;44525;46.052;13.610;2023-09-07T12:41:38;6.05;;;4.13;;
58752;SDS011;44525;46.052;13.610;2023-09-07T12:44:03;6.13;;;4.05;;
58752;SDS011;44525;46.052;13.610;2023-09-07T12:46:30;6.63;;;4.25;;
58752;SDS011;44525;46.052;13.610;2023-09-07T12:48:56;5.95;;;4.22;;
58752;SDS011;44525;46.052;13.610;2023-09-07T12:51:21;6.70;;;4.50;;
58752;SDS011;44525;46.052;13.610;2023-09-07T12:53:47;7.78;;;4.50;;
58752;SDS011;44525;46.052;13.610;2023-09-07T12:56:12;10.10;;;4.55;;
58752;SDS011;44525;46.052;13.610;2023-09-07T12:58:38;7.53;;;4.18;;
58752;SDS011;44525;46.052;13.610;2023-09-07T13:01:03;8.10;;;4.50;;
58752;SDS011;44525;46.052;13.610;2023-09-07T13:03:29;6.85;;;4.20;;
58752;SDS011;44525;46.052;13.610;2023-09-07T13:05:55;5.70;;;4.43;;
58752;SDS011;44525;46.052;13.610;2023-09-07T13:08:20;10.18;;;4.70;;
58752;SDS011;44525;46.052;13.610;2023-09-07T13:10:45;7.47;;;4.55;;
58752;SDS011;44525;46.052;13.610;2023-09-07T13:13:11;7.05;;;4.22;;
58752;SDS011;44525;46.052;13.610;2023-09-07T13:15:36;7.35;;;4.32;;
58752;SDS011;44525;46.052;13.610;2023-09-07T13:18:02;12.75;;;4.75;;
58752;SDS011;44525;46.052;13.610;2023-09-07T13:20:27;6.47;;;4.13;;
58752;SDS011;44525;46.052;13.610;2023-09-07T13:22:52;8.23;;;4.72;;
58752;SDS011;44525;46.052;13.610;2023-09-07T13:25:18;6.63;;;4.38;;
58752;SDS011;44525;46.052;13.610;2023-09-07T13:27:43;9.52;;;4.70;;
58752;SDS011;44525;46.052;13.610;2023-09-07T13:30:09;8.93;;;4.70;;
58752;SDS011;44525;46.052;13.610;2023-09-07T13:32:34;7.80;;;4.65;;
58752;SDS011;44525;46.052;13.610;2023-09-07T13:35:00;6.82;;;4.65;;
58752;SDS011;44525;46.052;13.610;2023-09-07T13:37:26;7.25;;;4.35;;
58752;SDS011;44525;46.052;13.610;2023-09-07T13:39:51;7.43;;;4.32;;
58752;SDS011;44525;46.052;13.610;2023-09-07T13:42:17;5.82;;;4.25;;
58752;SDS011;44525;46.052;13.610;2023-09-07T13:44:42;6.65;;;4.30;;
58752;SDS011;44525;46.052;13.610;2023-09-07T13:47:10;6.30;;;4.30;;
58752;SDS011;44525;46.052;13.610;2023-09-07T13:49:35;5.82;;;4.25;;
58752;SDS011;44525;46.052;13.610;2023-09-07T13:52:01;7.13;;;4.63;;
58752;SDS011;44525;46.052;13.610;2023-09-07T13:54:26;6.30;;;4.53;;
58752;SDS011;44525;46.052;13.610;2023-09-07T13:56:52;9.38;;;4.80;;
58752;SDS011;44525;46.052;13.610;2023-09-07T13:59:17;7.07;;;4.40;;
58752;SDS011;44525;46.052;13.610;2023-09-07T14:01:42;6.10;;;4.20;;
58752;SDS011;44525;46.052;13.610;2023-09-07T14:04:08;10.02;;;4.80;;
58752;SDS011;44525;46.052;13.610;2023-09-07T14:06:33;7.40;;;4.40;;
58752;SDS011;44525;46.052;13.610;2023-09-07T14:08:58;6.72;;;4.25;;
58752;SDS011;44525;46.052;13.610;2023-09-07T14:11:24;7.82;;;4.70;;
58752;SDS011;44525;46.052;13.610;2023-09-07T14:13:49;6.38;;;4.57;;
58752;SDS011;44525;46.052;13.610;2023-09-07T14:16:19;7.43;;;4.53;;
58752;SDS011;44525;46.052;13.610;2023-09-07T14:18:45;8.73;;;4.63;;
58752;SDS011;44525;46.052;13.610;2023-09-07T14:21:14;8.95;;;4.70;;
58752;SDS011;44525;46.052;13.610;2023-09-07T14:23:41;5.95;;;4.40;;
58752;SDS011;44525;46.052;13.610;2023-09-07T14:26:07;6.38;;;4.20;;
58752;SDS011;44525;46.052;13.610;2023-09-07T14:28:33;6.22;;;4.40;;
58752;SDS011;44525;46.052;13.610;2023-09-07T14:30:59;8.13;;;4.60;;